Un Karadeniz — TCTD3 — position and weather

sailwx.info

Track history (hours):
 
Tides and Currents Weather Stations Pressure Air Temp Water Temp Dewpoint Dewpoint Depression Visibility Wind Speed Wind Dir Waves Ship Positions

Un Karadeniz

Last reported at 2014-Nov-24 01:24 UTC. Time now 2014-Nov-24 12:30 UTC.
Position N 40°50' E 028°23'.

Length 193 m; draft 6.6 m.

Type: Ship (hazmat cat A). MMSI: 271002571.

Date/timePositionNaut miles runAvg speedWind from/ knotsBaromVisibWave heightAir tempDewpointWater temp
2014-Nov-24 01:24N 40°50' E 028°23'1618.6
2014-Nov-24 00:33N 40°52' E 028°43'1918.7
2014-Nov-23 23:33N 40°50' E 029°08'7 6.6
2014-Nov-23 22:33N 40°51' E 029°16'0 0.2
2014-Nov-23 21:33N 40°51' E 029°16'0 0.0
2014-Nov-23 20:33N 40°51' E 029°16'0 0.0
2014-Nov-23 19:33N 40°51' E 029°16'0 0.0
2014-Nov-23 18:33N 40°51' E 029°16'0 0.0
2014-Nov-23 17:33N 40°51' E 029°16'0 0.0
2014-Nov-23 16:33N 40°51' E 029°16'0 0.0
2014-Nov-23 15:33N 40°51' E 029°16'0 0.0
2014-Nov-23 14:33N 40°51' E 029°16'1 1.3
2014-Nov-23 13:33N 40°51' E 029°14'1716.5
2014-Nov-23 12:33N 40°50' E 028°53'9217.5
2014-Nov-23 07:19N 40°29' E 026°55'1715.9
2014-Nov-23 06:14N 40°19' E 026°36'3914.5
2014-Nov-23 03:33N 39°55' E 025°57'1817.8
2014-Nov-23 02:33N 39°39' E 025°45'12618.0
2014-Nov-22 19:33N 37°47' E 024°32'2217.7
2014-Nov-22 18:20N 37°29' E 024°18'  
2014-Nov-18 00:27N 36°24' E 022°42'3317.2
2014-Nov-17 22:31N 36°34' E 023°21'1818.5
2014-Nov-17 21:33N 36°48' E 023°35'1818.4
2014-Nov-17 20:34N 37°02' E 023°50'1918.7
2014-Nov-17 19:33N 37°16' E 024°05'1918.5
2014-Nov-17 18:31N 37°31' E 024°20'1818.4
2014-Nov-17 17:33N 37°46' E 024°32'2319.0
2014-Nov-17 16:22N 38°07' E 024°44'1619.3
2014-Nov-17 15:33N 38°21' E 024°53'10 0.2
2014-Nov-15 20:29N 38°12' E 024°48'1717.7
2014-Nov-15 19:30N 37°57' E 024°38'1718.0
2014-Nov-15 18:33N 37°41' E 024°29'1817.7
2014-Nov-15 17:33N 37°27' E 024°16'3617.7
2014-Nov-15 15:30N 36°59' E 023°47'2618.3
2014-Nov-15 14:04N 36°39' E 023°26'  
Track history (hours):
 
Tides and Currents Weather Stations Pressure Air Temp Water Temp Dewpoint Dewpoint Depression Visibility Wind Speed Wind Dir Waves Ship Positions

Un Karadeniz

Last reported at 2014-Nov-24 01:24 UTC. Time now 2014-Nov-24 12:30 UTC.
Position N 40°50' E 028°23'.

Length 193 m; draft 6.6 m.

Type: Ship (hazmat cat A). MMSI: 271002571.

Date/timePositionNaut miles runAvg speedWind from/ knotsBaromVisibWave heightAir tempDewpointWater temp
2014-Nov-24 01:24N 40°50' E 028°23'1618.6
2014-Nov-24 00:33N 40°52' E 028°43'1918.7
2014-Nov-23 23:33N 40°50' E 029°08'7 6.6
2014-Nov-23 22:33N 40°51' E 029°16'0 0.2
2014-Nov-23 21:33N 40°51' E 029°16'0 0.0
2014-Nov-23 20:33N 40°51' E 029°16'0 0.0
2014-Nov-23 19:33N 40°51' E 029°16'0 0.0
2014-Nov-23 18:33N 40°51' E 029°16'0 0.0
2014-Nov-23 17:33N 40°51' E 029°16'0 0.0
2014-Nov-23 16:33N 40°51' E 029°16'0 0.0
2014-Nov-23 15:33N 40°51' E 029°16'0 0.0
2014-Nov-23 14:33N 40°51' E 029°16'1 1.3
2014-Nov-23 13:33N 40°51' E 029°14'1716.5
2014-Nov-23 12:33N 40°50' E 028°53'9217.5
2014-Nov-23 07:19N 40°29' E 026°55'1715.9
2014-Nov-23 06:14N 40°19' E 026°36'3914.5
2014-Nov-23 03:33N 39°55' E 025°57'1817.8
2014-Nov-23 02:33N 39°39' E 025°45'12618.0
2014-Nov-22 19:33N 37°47' E 024°32'2217.7
2014-Nov-22 18:20N 37°29' E 024°18'  
2014-Nov-18 00:27N 36°24' E 022°42'3317.2
2014-Nov-17 22:31N 36°34' E 023°21'1818.5
2014-Nov-17 21:33N 36°48' E 023°35'1818.4
2014-Nov-17 20:34N 37°02' E 023°50'1918.7
2014-Nov-17 19:33N 37°16' E 024°05'1918.5
2014-Nov-17 18:31N 37°31' E 024°20'1818.4
2014-Nov-17 17:33N 37°46' E 024°32'2319.0
2014-Nov-17 16:22N 38°07' E 024°44'1619.3
2014-Nov-17 15:33N 38°21' E 024°53'10 0.2
2014-Nov-15 20:29N 38°12' E 024°48'1717.7
2014-Nov-15 19:30N 37°57' E 024°38'1718.0
2014-Nov-15 18:33N 37°41' E 024°29'1817.7
2014-Nov-15 17:33N 37°27' E 024°16'3617.7
2014-Nov-15 15:30N 36°59' E 023°47'2618.3
2014-Nov-15 14:04N 36°39' E 023°26'  

Dump ship's entire track history